Quemado, New Mexico
Current Conditions -  °F | °C
As of 6:35 AM on Friday 28 Nov 2014 (Local Time) from KJTC Reporting Station
Clear Clear  
Wind Chill: 23°   Ceiling: Unl
Heat Index: 30°   Visibility: 10mi
Dew Point:   Wind: 7mph
Humidity: 34%   Direction: 200°SSW
Pressure: 30.33"   Gusts: NA
Location:  34.34°N, 108.49°W
Report Text: KJTC 281335Z AUTO 20006KT 10SM CLR M01/M15 A3033 RMK AO2
Loading
Personal Weather Stations






























Interactive Weather Map New forecast layout! Learn more

10-Day Weather Forecast

Advertisements
Track Severe Weather on mobile